Time;durP1;ratioP1;P1;durP2;ratioP2;P2;SDS_P1;SDS_P2;PMS_P1;PMS_P2;Temp;Humidity;BMP_temperature;BMP_pressure;BME280_temperature;BME280_humidity;BME280_pressure;Samples;Min_cycle;Max_cycle;Signal;HPM_P1;HPM_P2
2023/12/04 00:01:32;;;;;;;5.03;3.00;;;;;;;-1.48;67.53;94345.94;5063886;28;20166;-89
2023/12/04 00:03:58;;;;;;;6.65;3.20;;;;;;;-1.45;67.43;94355.16;5063633;28;20044;-89
2023/12/04 00:06:23;;;;;;;5.97;3.13;;;;;;;-1.49;67.02;94326.03;5062932;28;20071;-90
2023/12/04 00:08:49;;;;;;;7.28;3.45;;;;;;;-1.53;67.58;94343.19;5063682;28;20044;-89
2023/12/04 00:11:14;;;;;;;6.90;3.20;;;;;;;-1.49;66.85;94351.41;5062682;28;20276;-89
2023/12/04 00:13:40;;;;;;;6.28;3.38;;;;;;;-1.45;67.89;94349.91;5062732;28;20024;-88
2023/12/04 00:16:06;;;;;;;7.72;3.67;;;;;;;-1.52;68.13;94357.09;5063327;28;20025;-91
2023/12/04 00:18:34;;;;;;;7.65;4.03;;;;;;;-1.48;68.96;94353.78;5070005;28;20020;-91
2023/12/04 00:21:00;;;;;;;7.13;3.95;;;;;;;-1.38;69.51;94378.56;5070263;28;20088;-91
2023/12/04 00:23:25;;;;;;;8.98;3.75;;;;;;;-1.41;67.42;94392.91;5069085;28;20051;-92
2023/12/04 00:25:51;;;;;;;5.18;2.97;;;;;;;-1.38;66.34;94386.41;5071423;28;20040;-91
2023/12/04 00:28:17;;;;;;;6.50;3.22;;;;;;;-1.38;64.56;94383.81;5073755;28;20016;-87
2023/12/04 00:30:42;;;;;;;6.13;3.45;;;;;;;-1.35;65.17;94384.16;5063588;28;20157;-89
2023/12/04 00:33:08;;;;;;;8.15;3.50;;;;;;;-1.44;61.08;94388.94;5064532;28;20021;-89
2023/12/04 00:35:33;;;;;;;4.07;2.50;;;;;;;-1.41;62.82;94401.53;5064499;28;20031;-89
2023/12/04 00:37:59;;;;;;;6.60;3.15;;;;;;;-1.37;64.32;94382.78;5063998;28;20024;-89
2023/12/04 00:40:24;;;;;;;7.55;3.17;;;;;;;-1.47;62.58;94381.50;5063656;28;20084;-89
2023/12/04 00:42:50;;;;;;;5.45;2.45;;;;;;;-1.47;61.27;94391.97;5062224;28;20017;-86
2023/12/04 00:45:15;;;;;;;7.50;3.20;;;;;;;-1.39;61.20;94405.75;5062367;28;20021;-86
2023/12/04 00:47:41;;;;;;;7.55;3.80;;;;;;;-1.51;61.78;94396.06;5062824;28;20361;-86
2023/12/04 00:50:07;;;;;;;6.03;3.15;;;;;;;-1.48;60.98;94411.31;5061862;28;20067;-86
2023/12/04 00:52:32;;;;;;;6.95;2.88;;;;;;;-1.42;61.95;94414.84;5061461;28;20028;-86
2023/12/04 00:54:57;;;;;;;7.03;3.03;;;;;;;-1.41;61.48;94419.06;5062722;28;20047;-86
2023/12/04 00:57:23;;;;;;;9.57;3.63;;;;;;;-1.43;62.65;94411.41;5062845;28;20083;-86
2023/12/04 00:59:49;;;;;;;7.25;3.38;;;;;;;-1.47;62.52;94415.50;5062552;28;20373;-86
2023/12/04 01:02:14;;;;;;;5.68;3.13;;;;;;;-1.52;62.65;94414.59;5062853;28;20291;-86
2023/12/04 01:04:41;;;;;;;5.28;2.85;;;;;;;-1.53;61.46;94418.22;5062480;28;20433;-86
2023/12/04 01:07:07;;;;;;;8.77;3.92;;;;;;;-1.55;62.84;94423.66;5063803;28;20017;-86
2023/12/04 01:09:37;;;;;;;6.85;3.72;;;;;;;-1.44;63.78;94420.31;5062440;28;20017;-86
2023/12/04 01:12:03;;;;;;;8.77;4.25;;;;;;;-1.41;64.08;94412.00;5063950;28;20029;-86
2023/12/04 01:14:29;;;;;;;9.75;4.60;;;;;;;-1.48;63.37;94413.13;5063752;28;20025;-86
2023/12/04 01:16:54;;;;;;;9.38;4.15;;;;;;;-1.53;63.53;94416.41;5063572;28;20067;-86
2023/12/04 01:19:20;;;;;;;7.47;3.75;;;;;;;-1.52;64.51;94436.31;5063632;28;20100;-87
2023/12/04 01:21:45;;;;;;;7.28;4.18;;;;;;;-1.57;65.00;94417.88;5063523;28;20029;-86
2023/12/04 01:24:11;;;;;;;7.03;3.78;;;;;;;-1.57;65.40;94423.09;5063595;28;20097;-86
2023/12/04 01:26:36;;;;;;;9.10;4.10;;;;;;;-1.56;64.10;94423.91;5063464;28;20028;-84
2023/12/04 01:29:05;;;;;;;6.32;3.22;;;;;;;-1.64;63.75;94415.34;5062111;28;20223;-84
2023/12/04 01:31:30;;;;;;;10.50;4.18;;;;;;;-1.65;63.39;94421.63;5062060;28;20043;-83
2023/12/04 01:33:56;;;;;;;6.97;3.78;;;;;;;-1.67;63.86;94426.28;5062336;28;20315;-82
2023/12/04 01:36:21;;;;;;;10.00;4.60;;;;;;;-1.71;64.71;94414.66;5063662;28;20029;-82
2023/12/04 01:38:47;;;;;;;6.28;4.15;;;;;;;-1.75;65.51;94431.00;5063500;28;20100;-87
2023/12/04 01:41:13;;;;;;;8.00;3.92;;;;;;;-1.82;66.60;94421.44;5062050;28;20052;-86
2023/12/04 01:43:38;;;;;;;9.85;4.55;;;;;;;-1.81;67.20;94432.72;5063000;28;20031;-87
2023/12/04 01:46:04;;;;;;;7.80;4.05;;;;;;;-1.85;67.00;94426.31;5061935;28;20092;-87
2023/12/04 01:48:30;;;;;;;11.82;4.72;;;;;;;-1.87;67.32;94421.31;5063045;28;20067;-89
2023/12/04 01:50:58;;;;;;;8.68;3.80;;;;;;;-1.91;67.44;94428.00;5063563;28;20247;-90
2023/12/04 01:53:24;;;;;;;8.32;4.15;;;;;;;-1.97;67.90;94428.88;5064342;28;20024;-93
2023/12/04 01:55:50;;;;;;;10.82;4.72;;;;;;;-1.96;67.81;94433.06;5067250;28;20035;-93
2023/12/04 01:58:16;;;;;;;10.07;5.13;;;;;;;-1.96;67.98;94416.63;5067510;28;20071;-92
2023/12/04 02:00:42;;;;;;;8.02;3.92;;;;;;;-1.97;67.81;94422.84;5066411;28;20033;-91
2023/12/04 02:03:08;;;;;;;8.82;4.50;;;;;;;-1.98;68.50;94424.66;5066095;28;20033;-93
2023/12/04 02:05:35;;;;;;;9.05;4.70;;;;;;;-2.04;68.58;94430.78;5067417;28;20040;-92
2023/12/04 02:08:01;;;;;;;7.65;4.07;;;;;;;-2.02;68.19;94447.03;5067529;28;20038;-92
2023/12/04 02:10:26;;;;;;;8.00;4.15;;;;;;;-2.07;67.39;94444.28;5066206;28;20028;-87
2023/12/04 02:12:52;;;;;;;8.60;4.07;;;;;;;-2.06;66.83;94440.66;5065399;28;20088;-87
2023/12/04 02:15:18;;;;;;;9.18;4.22;;;;;;;-2.07;66.58;94458.13;5065063;28;20036;-87
2023/12/04 02:17:46;;;;;;;6.30;3.50;;;;;;;-2.14;67.24;94446.16;5068126;28;20052;-89
2023/12/04 02:20:15;;;;;;;11.18;4.72;;;;;;;-2.07;67.68;94449.50;5066593;28;20035;-89
2023/12/04 02:22:41;;;;;;;16.40;4.50;;;;;;;-2.10;67.82;94455.16;5065639;28;20029;-90
2023/12/04 02:25:08;;;;;;;8.38;4.60;;;;;;;-2.13;67.03;94453.78;5065598;28;20024;-91
2023/12/04 02:27:53;;;;;;;8.60;4.22;;;;;;;-2.19;67.75;94453.88;5065642;28;20055;-90
2023/12/04 02:30:23;;;;;;;10.32;3.83;;;;;;;-2.25;67.63;94453.72;5066680;28;20210;-90
2023/12/04 02:32:49;;;;;;;12.00;4.60;;;;;;;-2.22;66.95;94455.91;5065827;28;20028;-90
2023/12/04 02:35:26;;;;;;;7.07;3.55;;;;;;;-2.20;65.22;94473.16;5065350;28;20036;-91
2023/12/04 02:37:53;;;;;;;7.40;3.85;;;;;;;-2.31;63.94;94462.44;5067441;28;20330;-90
2023/12/04 02:40:19;;;;;;;8.30;2.85;;;;;;;-2.36;64.16;94479.75;5068782;28;20315;-90
2023/12/04 02:42:45;;;;;;;5.85;3.03;;;;;;;-2.35;64.02;94471.72;5069499;28;20033;-89
2023/12/04 02:45:10;;;;;;;9.50;3.25;;;;;;;-2.32;62.99;94489.56;5068276;28;20049;-90
2023/12/04 02:47:35;;;;;;;8.77;4.00;;;;;;;-2.39;62.87;94474.97;5066035;28;20043;-89
2023/12/04 02:50:01;;;;;;;6.75;3.80;;;;;;;-2.44;62.59;94465.19;5065778;28;20097;-88
2023/12/04 02:52:26;;;;;;;6.70;3.30;;;;;;;-2.47;62.54;94478.66;5065537;28;20072;-88
2023/12/04 02:54:52;;;;;;;7.47;3.47;;;;;;;-2.47;63.86;94474.25;5065904;28;20005;-88
2023/12/04 02:57:17;;;;;;;8.23;3.88;;;;;;;-2.44;65.03;94475.63;5065953;28;20081;-88
2023/12/04 02:59:43;;;;;;;7.05;3.40;;;;;;;-2.51;64.23;94469.69;5064167;28;20028;-89
2023/12/04 03:02:08;;;;;;;8.45;4.47;;;;;;;-2.42;64.93;94468.38;5064845;28;20021;-88
2023/12/04 03:04:35;;;;;;;7.18;3.55;;;;;;;-2.45;64.98;94456.53;5065797;28;20025;-89
2023/12/04 03:07:01;;;;;;;8.15;3.10;;;;;;;-2.54;64.33;94473.53;5064309;28;20017;-89
2023/12/04 03:09:26;;;;;;;9.10;3.85;;;;;;;-2.56;64.61;94469.53;5065585;28;20032;-89
2023/12/04 03:11:52;;;;;;;5.57;2.63;;;;;;;-2.59;65.04;94464.75;5065374;28;20028;-89
2023/12/04 03:14:17;;;;;;;12.02;3.33;;;;;;;-2.57;64.74;94463.50;5065733;28;20021;-89
2023/12/04 03:16:42;;;;;;;5.97;3.08;;;;;;;-2.49;65.45;94465.81;5064554;28;20035;-88
2023/12/04 03:19:08;;;;;;;9.20;3.65;;;;;;;-2.48;64.24;94466.66;5064373;28;20399;-89
2023/12/04 03:21:34;;;;;;;10.50;4.20;;;;;;;-2.48;65.60;94462.22;5066025;28;20228;-91
2023/12/04 03:23:59;;;;;;;9.32;4.45;;;;;;;-2.46;63.70;94467.22;5065207;28;20067;-91
2023/12/04 03:26:25;;;;;;;7.97;3.35;;;;;;;-2.42;64.65;94471.00;5067622;28;20099;-91
2023/12/04 03:28:51;;;;;;;6.78;3.53;;;;;;;-2.41;64.74;94467.34;5069819;28;20020;-91
2023/12/04 03:31:17;;;;;;;7.32;3.78;;;;;;;-2.37;64.63;94478.19;5070016;28;20017;-90
2023/12/04 03:33:42;;;;;;;6.45;3.33;;;;;;;-2.48;63.23;94471.88;5069692;28;20031;-87
2023/12/04 03:36:08;;;;;;;8.75;3.92;;;;;;;-2.42;64.62;94476.22;5063720;28;20029;-89
2023/12/04 03:38:33;;;;;;;6.35;3.30;;;;;;;-2.42;64.29;94476.22;5063877;28;20318;-83
2023/12/04 03:40:59;;;;;;;7.45;3.63;;;;;;;-2.40;65.44;94479.41;5063307;28;20024;-82
2023/12/04 03:43:24;;;;;;;10.32;4.10;;;;;;;-2.50;65.26;94489.56;5064296;28;20048;-82
2023/12/04 03:45:50;;;;;;;7.45;3.60;;;;;;;-2.44;65.00;94499.13;5064598;28;20020;-90
2023/12/04 03:48:15;;;;;;;7.65;4.05;;;;;;;-2.55;65.08;94489.41;5064513;28;20036;-89
2023/12/04 03:50:41;;;;;;;7.80;4.63;;;;;;;-2.50;66.43;94492.97;5063780;28;20025;-89
2023/12/04 03:53:06;;;;;;;11.02;4.90;;;;;;;-2.47;66.61;94486.50;5064153;28;20028;-85
2023/12/04 03:55:32;;;;;;;8.27;3.97;;;;;;;-2.44;66.20;94489.47;5064124;28;20084;-85
2023/12/04 03:57:59;;;;;;;9.50;3.80;;;;;;;-2.42;65.83;94490.06;5064018;28;20044;-85
2023/12/04 04:00:24;;;;;;;10.02;4.78;;;;;;;-2.43;66.42;94485.06;5064289;28;20036;-85
2023/12/04 04:02:50;;;;;;;8.52;3.83;;;;;;;-2.50;65.67;94495.56;5063969;28;20025;-89
2023/12/04 04:05:17;;;;;;;5.55;3.42;;;;;;;-2.51;65.22;94482.72;5064911;28;20143;-89
2023/12/04 04:07:42;;;;;;;6.78;3.80;;;;;;;-2.52;65.79;94491.59;5063855;28;20047;-90
2023/12/04 04:10:08;;;;;;;7.65;4.07;;;;;;;-2.62;66.22;94479.03;5064563;28;20335;-88
2023/12/04 04:12:34;;;;;;;8.38;4.45;;;;;;;-2.68;66.44;94485.91;5064076;28;20055;-88
2023/12/04 04:15:00;;;;;;;10.00;4.63;;;;;;;-2.71;66.29;94478.47;5063190;28;20126;-88
2023/12/04 04:17:26;;;;;;;7.47;3.45;;;;;;;-2.76;65.46;94491.38;5062544;28;20323;-87
2023/12/04 04:19:52;;;;;;;5.25;3.20;;;;;;;-2.72;62.95;94508.22;5069352;28;20025;-88
2023/12/04 04:22:18;;;;;;;6.80;3.22;;;;;;;-2.76;63.95;94496.59;5067295;28;20059;-87
2023/12/04 04:24:44;;;;;;;6.60;3.00;;;;;;;-2.69;63.16;94499.94;5066268;28;20021;-88
2023/12/04 04:27:09;;;;;;;7.88;3.05;;;;;;;-2.67;62.13;94494.50;5067238;28;20027;-88
2023/12/04 04:29:34;;;;;;;8.88;3.10;;;;;;;-2.65;62.00;94511.56;5064939;28;20021;-88
2023/12/04 04:32:00;;;;;;;8.82;3.65;;;;;;;-2.67;62.08;94515.38;5064240;28;20099;-88
2023/12/04 04:34:25;;;;;;;7.35;3.95;;;;;;;-2.76;63.11;94516.69;5064413;28;20040;-88
2023/12/04 04:36:51;;;;;;;7.20;3.78;;;;;;;-2.86;63.52;94507.53;5064578;28;20031;-89
2023/12/04 04:39:16;;;;;;;6.78;3.53;;;;;;;-2.90;62.77;94505.56;5064113;28;20024;-86
2023/12/04 04:41:42;;;;;;;9.70;3.85;;;;;;;-2.86;64.04;94506.72;5063732;28;20047;-86
2023/12/04 04:44:07;;;;;;;7.22;3.70;;;;;;;-2.89;63.85;94512.34;5063751;28;20104;-87
2023/12/04 04:46:33;;;;;;;10.73;4.82;;;;;;;-2.91;63.81;94519.59;5063967;28;20036;-87
2023/12/04 04:48:58;;;;;;;6.70;3.08;;;;;;;-2.90;63.04;94521.22;5063714;28;20020;-88
2023/12/04 04:51:24;;;;;;;7.20;3.08;;;;;;;-2.89;62.76;94522.78;5063439;28;20021;-87
2023/12/04 04:53:50;;;;;;;9.50;3.67;;;;;;;-2.90;63.68;94527.22;5063537;28;20104;-87
2023/12/04 04:56:16;;;;;;;10.20;3.78;;;;;;;-2.87;64.06;94531.22;5063364;28;20063;-86
2023/12/04 04:58:41;;;;;;;11.63;4.88;;;;;;;-2.92;64.34;94534.47;5063351;28;20255;-87
2023/12/04 05:01:08;;;;;;;9.25;4.05;;;;;;;-2.89;63.06;94528.84;5063518;28;20025;-87
2023/12/04 05:03:33;;;;;;;8.65;4.13;;;;;;;-2.89;63.70;94543.66;5063286;28;20095;-91
2023/12/04 05:05:59;;;;;;;10.27;4.10;;;;;;;-2.87;62.94;94531.22;5063488;28;20078;-90
2023/12/04 05:08:24;;;;;;;11.43;3.83;;;;;;;-2.86;62.60;94538.03;5062264;28;20031;-85
2023/12/04 05:10:50;;;;;;;10.30;4.32;;;;;;;-2.86;62.91;94527.59;5063301;28;20029;-88
2023/12/04 05:13:15;;;;;;;9.65;4.65;;;;;;;-2.88;62.56;94533.03;5062991;28;20048;-88
2023/12/04 05:15:41;;;;;;;8.75;4.10;;;;;;;-2.86;63.97;94543.25;5063285;28;20100;-84
2023/12/04 05:18:06;;;;;;;9.10;4.10;;;;;;;-2.86;64.35;94546.66;5062024;28;20029;-84
2023/12/04 05:20:32;;;;;;;8.80;3.70;;;;;;;-2.86;64.03;94548.47;5063861;28;20131;-89
2023/12/04 05:22:57;;;;;;;7.88;3.80;;;;;;;-2.86;63.38;94545.88;5063956;28;20342;-89
2023/12/04 05:25:23;;;;;;;8.82;4.30;;;;;;;-2.87;62.60;94549.47;5062904;28;20028;-86
2023/12/04 05:27:48;;;;;;;13.13;4.35;;;;;;;-2.86;61.94;94562.31;5063372;28;20029;-87
2023/12/04 05:30:14;;;;;;;7.28;3.83;;;;;;;-2.83;62.33;94545.44;5065811;28;20310;-87
2023/12/04 05:32:40;;;;;;;10.23;5.47;;;;;;;-2.86;62.81;94549.25;5067391;28;20027;-87
2023/12/04 05:35:05;;;;;;;13.25;4.57;;;;;;;-2.84;62.86;94551.66;5067474;28;20033;-87
2023/12/04 05:37:31;;;;;;;9.88;3.22;;;;;;;-2.84;60.57;94556.88;5067529;28;20312;-87
2023/12/04 05:39:57;;;;;;;10.25;5.30;;;;;;;-2.77;59.71;94551.59;5066010;28;20311;-86
2023/12/04 05:42:23;;;;;;;8.75;3.80;;;;;;;-2.77;60.45;94568.06;5067764;28;20059;-87
2023/12/04 05:44:48;;;;;;;11.13;4.85;;;;;;;-2.79;61.75;94557.03;5067278;28;20013;-86
2023/12/04 05:47:14;;;;;;;11.73;4.70;;;;;;;-2.79;61.84;94559.66;5067148;28;20227;-85
2023/12/04 05:49:40;;;;;;;12.15;4.75;;;;;;;-2.73;61.40;94561.41;5065835;28;20020;-88
2023/12/04 05:52:06;;;;;;;8.65;4.32;;;;;;;-2.68;59.83;94573.84;5065697;28;20024;-86
2023/12/04 05:54:31;;;;;;;10.55;5.05;;;;;;;-2.62;61.15;94560.72;5064966;28;20021;-88
2023/12/04 05:56:57;;;;;;;12.15;5.13;;;;;;;-2.59;62.61;94566.53;5066734;28;20370;-87
2023/12/04 05:59:22;;;;;;;11.05;5.75;;;;;;;-2.59;63.06;94564.72;5067325;28;20031;-89
2023/12/04 06:01:48;;;;;;;10.00;5.05;;;;;;;-2.64;64.24;94567.97;5066765;28;20012;-86
2023/12/04 06:04:13;;;;;;;9.57;4.65;;;;;;;-2.70;64.92;94568.81;5066571;28;20024;-86
2023/12/04 06:06:39;;;;;;;11.52;5.65;;;;;;;-2.78;65.91;94576.91;5066682;28;20035;-86
2023/12/04 06:09:05;;;;;;;11.82;6.22;;;;;;;-2.83;66.89;94568.91;5066509;28;20021;-87
2023/12/04 06:11:30;;;;;;;12.93;6.00;;;;;;;-2.93;67.71;94585.06;5066676;28;20016;-85
2023/12/04 06:13:56;;;;;;;12.68;6.35;;;;;;;-3.02;68.06;94584.47;5066334;28;20223;-86
2023/12/04 06:16:21;;;;;;;15.55;7.40;;;;;;;-3.13;68.92;94584.38;5066511;28;20088;-86
2023/12/04 06:18:47;;;;;;;12.82;6.32;;;;;;;-3.12;69.25;94591.97;5065776;28;20017;-82
2023/12/04 06:21:12;;;;;;;15.05;6.57;;;;;;;-3.04;68.88;94586.50;5066162;28;20021;-82
2023/12/04 06:23:38;;;;;;;12.75;7.15;;;;;;;-3.04;69.14;94591.72;5066040;28;20319;-82
2023/12/04 06:26:04;;;;;;;16.95;7.03;;;;;;;-3.05;69.91;94594.56;5065938;28;20021;-85
2023/12/04 06:28:30;;;;;;;18.67;8.05;;;;;;;-3.02;69.95;94589.69;5066129;28;20024;-84
2023/12/04 06:30:55;;;;;;;12.52;6.45;;;;;;;-3.02;68.65;94584.47;5066245;28;20025;-84
2023/12/04 06:33:21;;;;;;;38.28;12.77;;;;;;;-2.89;68.15;94586.22;5064903;28;20031;-85
2023/12/04 06:35:47;;;;;;;31.48;10.00;;;;;;;-2.83;65.93;94582.78;5098263;28;20021;-84
2023/12/04 06:38:15;;;;;;;30.02;10.38;;;;;;;-2.68;64.22;94595.50;5065621;28;20021;-85
2023/12/04 06:40:41;;;;;;;12.75;5.05;;;;;;;-2.64;63.03;94601.91;5064941;28;20303;-81
2023/12/04 06:43:07;;;;;;;9.77;4.68;;;;;;;-2.55;61.17;94606.84;5064736;28;20021;-85
2023/12/04 06:45:33;;;;;;;8.35;4.18;;;;;;;-2.54;60.05;94601.44;5064998;28;20020;-90
2023/12/04 06:48:00;;;;;;;8.40;4.35;;;;;;;-2.51;59.83;94610.63;5066443;28;20025;-88
2023/12/04 06:50:26;;;;;;;12.13;5.03;;;;;;;-2.40;61.34;94609.13;5066034;28;20223;-87
2023/12/04 06:52:54;;;;;;;9.30;4.53;;;;;;;-2.42;60.54;94606.75;5064851;28;20103;-88
2023/12/04 06:55:20;;;;;;;10.15;5.28;;;;;;;-2.38;61.66;94618.38;5066580;28;20025;-90
2023/12/04 06:57:45;;;;;;;15.68;5.63;;;;;;;-2.36;62.14;94615.53;5063825;28;20052;-82
2023/12/04 07:00:15;;;;;;;13.40;5.75;;;;;;;-2.32;62.34;94614.91;5064802;28;20075;-84
2023/12/04 07:02:41;;;;;;;11.15;6.00;;;;;;;-2.30;62.59;94618.09;5065171;28;20028;-82
2023/12/04 07:05:06;;;;;;;10.27;4.70;;;;;;;-2.36;60.58;94616.34;5065118;28;20020;-82
2023/12/04 07:07:43;;;;;;;12.57;4.40;;;;;;;-2.32;61.45;94622.75;5065509;28;20028;-89
2023/12/04 07:10:09;;;;;;;16.65;4.78;;;;;;;-2.35;60.89;94649.25;5065133;28;20016;-87
2023/12/04 07:12:34;;;;;;;14.25;4.07;;;;;;;-2.52;61.04;94635.16;5069110;28;20025;-85
2023/12/04 07:15:00;;;;;;;10.10;4.22;;;;;;;-2.47;61.17;94635.31;5068824;28;20016;-85
2023/12/04 07:17:26;;;;;;;16.27;4.35;;;;;;;-2.38;60.94;94634.03;5073003;28;20021;-85
2023/12/04 07:19:52;;;;;;;8.98;3.90;;;;;;;-2.45;61.14;94628.84;5064850;28;20016;-77
2023/12/04 07:22:18;;;;;;;8.48;4.25;;;;;;;-2.38;61.20;94620.97;5064063;28;20032;-81
2023/12/04 07:24:43;;;;;;;12.57;4.97;;;;;;;-2.27;63.83;94635.16;5062164;28;20328;-79
2023/12/04 07:27:09;;;;;;;12.50;5.30;;;;;;;-2.18;63.96;94638.28;5064362;28;20027;-78
2023/12/04 07:29:34;;;;;;;15.32;5.30;;;;;;;-2.14;63.13;94644.66;5063623;28;20327;-77
2023/12/04 07:32:00;;;;;;;13.88;5.88;;;;;;;-2.04;63.41;94637.94;5062211;28;20024;-79
2023/12/04 07:34:26;;;;;;;12.18;5.55;;;;;;;-2.13;62.50;94643.66;5063758;28;20024;-78
2023/12/04 07:36:51;;;;;;;16.58;5.28;;;;;;;-2.13;64.23;94641.06;5064102;28;20063;-78
2023/12/04 07:39:17;;;;;;;10.32;4.40;;;;;;;-2.15;62.42;94643.88;5063911;28;20021;-79
2023/12/04 07:41:42;;;;;;;12.13;4.95;;;;;;;-2.18;62.73;94644.28;5063833;28;20062;-79
2023/12/04 07:44:08;;;;;;;12.32;4.63;;;;;;;-2.09;61.94;94645.63;5063830;28;20021;-78
2023/12/04 07:46:34;;;;;;;9.15;4.78;;;;;;;-2.08;63.24;94638.59;5062063;28;20025;-78
2023/12/04 07:48:59;;;;;;;12.95;5.28;;;;;;;-2.02;63.21;94635.13;5061856;28;20044;-79
2023/12/04 07:51:24;;;;;;;10.85;4.95;;;;;;;-2.00;62.07;94645.34;5061662;28;20059;-78
2023/12/04 07:53:50;;;;;;;8.63;4.05;;;;;;;-2.15;60.72;94645.69;5061792;28;20327;-79
2023/12/04 07:56:16;;;;;;;8.02;4.03;;;;;;;-2.07;61.95;94645.44;5061909;28;20370;-79
2023/12/04 07:58:41;;;;;;;8.05;3.72;;;;;;;-2.08;60.68;94644.59;5062237;28;20032;-79
2023/12/04 08:01:07;;;;;;;11.30;4.20;;;;;;;-2.10;62.11;94635.38;5062905;28;20426;-79
2023/12/04 08:03:32;;;;;;;13.35;4.50;;;;;;;-2.02;61.16;94653.41;5063438;28;20033;-79
2023/12/04 08:05:58;;;;;;;10.02;4.70;;;;;;;-1.92;61.77;94661.56;5063688;28;20059;-78
2023/12/04 08:08:24;;;;;;;8.90;3.80;;;;;;;-1.87;60.27;94655.69;5063346;28;20053;-79
2023/12/04 08:10:50;;;;;;;12.88;4.97;;;;;;;-1.83;61.57;94656.88;5063632;28;20036;-79
2023/12/04 08:13:16;;;;;;;9.27;4.43;;;;;;;-1.82;61.73;94664.47;5063430;28;20029;-78
2023/12/04 08:15:42;;;;;;;9.13;4.80;;;;;;;-1.82;61.83;94668.91;5062875;28;20036;-78
2023/12/04 08:18:08;;;;;;;11.07;4.80;;;;;;;-1.76;62.56;94662.03;5063248;28;20040;-79
2023/12/04 08:20:33;;;;;;;9.02;4.38;;;;;;;-1.90;59.78;94666.56;5062936;28;20044;-78
2023/12/04 08:22:59;;;;;;;9.13;3.72;;;;;;;-1.93;60.02;94654.75;5062903;28;20043;-78
2023/12/04 08:25:25;;;;;;;6.28;3.35;;;;;;;-1.96;59.56;94656.97;5062666;28;20035;-79
2023/12/04 08:27:51;;;;;;;8.32;4.43;;;;;;;-1.85;61.49;94649.22;5063067;28;20100;-80
2023/12/04 08:30:16;;;;;;;7.85;3.78;;;;;;;-1.77;60.50;94649.94;5062694;28;20020;-79
2023/12/04 08:32:41;;;;;;;7.78;4.25;;;;;;;-1.72;59.78;94642.28;5062700;28;20120;-80
2023/12/04 08:35:07;;;;;;;9.57;4.75;;;;;;;-1.60;59.55;94656.22;5062515;28;20204;-80
2023/12/04 08:37:33;;;;;;;16.90;5.70;;;;;;;-1.50;61.42;94653.91;5062451;28;20032;-80
2023/12/04 08:39:58;;;;;;;12.27;5.20;;;;;;;-1.33;60.92;94650.69;5062573;28;20328;-80
2023/12/04 08:42:24;;;;;;;8.75;4.28;;;;;;;-1.22;58.94;94652.59;5062672;28;20021;-80
2023/12/04 08:44:49;;;;;;;6.85;3.40;;;;;;;-1.24;55.14;94649.41;5062471;28;20048;-80
2023/12/04 08:47:14;;;;;;;8.27;3.40;;;;;;;-1.20;54.57;94653.16;5062811;28;20051;-84
2023/12/04 08:49:40;;;;;;;7.70;3.30;;;;;;;-1.14;55.59;94654.09;5063180;28;20040;-83
2023/12/04 08:52:07;;;;;;;7.25;3.35;;;;;;;-1.04;56.04;94646.50;5062192;28;20055;-83
2023/12/04 08:54:33;;;;;;;8.10;3.45;;;;;;;-0.99;54.40;94651.88;5061890;28;20041;-83
2023/12/04 08:56:59;;;;;;;8.23;3.63;;;;;;;-1.08;57.04;94643.56;5062807;28;20045;-84
2023/12/04 08:59:24;;;;;;;8.07;3.17;;;;;;;-0.96;55.37;94650.63;5062624;28;20027;-84
2023/12/04 09:01:50;;;;;;;6.07;3.13;;;;;;;-0.97;52.65;94654.28;5063434;28;20036;-84
2023/12/04 09:04:15;;;;;;;7.53;3.35;;;;;;;-0.97;53.21;94642.00;5067514;28;20074;-79
2023/12/04 09:06:41;;;;;;;13.82;2.97;;;;;;;-0.95;53.34;94639.97;5069240;28;20027;-75
2023/12/04 09:09:06;;;;;;;6.82;3.55;;;;;;;-0.88;52.86;94647.72;5069244;28;20394;-76
2023/12/04 09:11:31;;;;;;;5.88;3.33;;;;;;;-0.82;52.76;94636.34;5069133;28;20043;-75
2023/12/04 09:13:57;;;;;;;10.13;3.42;;;;;;;-0.76;52.70;94635.47;5068985;28;20028;-75
2023/12/04 09:16:23;;;;;;;9.73;3.10;;;;;;;-0.71;52.13;94627.75;5069113;28;20032;-75
2023/12/04 09:18:48;;;;;;;5.97;3.03;;;;;;;-0.66;51.04;94627.88;5068955;28;20025;-75
2023/12/04 09:21:14;;;;;;;8.38;3.75;;;;;;;-0.69;51.32;94620.47;5068909;28;20033;-75
2023/12/04 09:23:39;;;;;;;7.45;3.45;;;;;;;-0.67;51.95;94622.84;5068926;28;20021;-76
2023/12/04 09:26:05;;;;;;;7.00;3.63;;;;;;;-0.64;53.11;94627.66;5068729;28;20130;-77
2023/12/04 09:28:30;;;;;;;7.18;3.42;;;;;;;-0.54;53.35;94625.28;5068859;28;20028;-75
2023/12/04 09:30:56;;;;;;;13.85;2.90;;;;;;;-0.47;50.94;94622.56;5068978;28;20239;-76
2023/12/04 09:33:21;;;;;;;5.70;2.72;;;;;;;-0.38;50.12;94615.97;5068951;28;20021;-76
2023/12/04 09:35:47;;;;;;;6.38;2.92;;;;;;;-0.36;49.66;94621.00;5068646;28;20021;-76
2023/12/04 09:38:12;;;;;;;7.60;3.25;;;;;;;-0.35;50.55;94617.34;5068887;28;20255;-76
2023/12/04 09:40:38;;;;;;;10.15;3.70;;;;;;;-0.31;51.79;94610.63;5068714;28;20021;-75
2023/12/04 09:43:05;;;;;;;6.10;2.88;;;;;;;-0.27;50.85;94617.78;5068775;28;20021;-74
2023/12/04 09:45:32;;;;;;;4.93;2.92;;;;;;;-0.24;48.95;94619.97;5068631;28;20168;-75
2023/12/04 09:47:58;;;;;;;7.45;2.97;;;;;;;-0.17;50.11;94619.06;5068611;28;20025;-75
2023/12/04 09:50:24;;;;;;;9.25;4.25;;;;;;;-0.11;50.78;94620.78;5068887;28;20084;-75
2023/12/04 09:52:51;;;;;;;7.05;3.78;;;;;;;0.02;51.41;94614.50;5068915;28;20032;-75
2023/12/04 09:55:17;;;;;;;8.93;4.50;;;;;;;0.10;53.15;94604.50;5068626;28;20025;-75
2023/12/04 09:57:46;;;;;;;11.60;3.45;;;;;;;0.16;52.35;94600.13;5068466;28;20044;-76
2023/12/04 10:00:14;;;;;;;7.45;3.47;;;;;;;0.27;51.47;94601.16;5068339;28;20027;-75
2023/12/04 10:02:40;;;;;;;9.35;3.40;;;;;;;0.36;50.23;94599.78;5068488;28;20346;-75
2023/12/04 10:05:07;;;;;;;9.35;4.15;;;;;;;0.37;50.50;94599.56;5068634;28;20036;-75
2023/12/04 10:07:32;;;;;;;10.30;3.60;;;;;;;0.36;50.14;94594.53;5068539;28;20051;-75
2023/12/04 10:09:58;;;;;;;6.97;3.40;;;;;;;0.44;49.74;94596.00;5068529;28;20016;-76
2023/12/04 10:12:25;;;;;;;7.10;3.15;;;;;;;0.46;48.83;94593.94;5068625;28;20024;-75
2023/12/04 10:15:12;;;;;;;9.30;3.85;;;;;;;0.46;50.29;94594.72;5067000;28;20075;-76
2023/12/04 10:18:23;;;;;;;7.70;3.50;;;;;;;0.65;50.90;94602.44;5064641;28;20029;-76
2023/12/04 10:20:54;;;;;;;14.13;3.65;;;;;;;0.72;50.51;94605.75;5065153;28;20060;-76
2023/12/04 10:23:20;;;;;;;8.65;4.05;;;;;;;0.77;49.74;94600.59;5065171;28;20070;-76
2023/12/04 10:25:45;;;;;;;8.15;4.03;;;;;;;0.80;50.35;94597.50;5065066;28;20088;-76
2023/12/04 10:28:12;;;;;;;8.82;4.10;;;;;;;0.89;49.22;94590.84;5064795;28;20025;-76
2023/12/04 10:30:38;;;;;;;11.73;4.28;;;;;;;0.90;49.29;94581.94;5063894;28;20033;-75
2023/12/04 10:33:05;;;;;;;16.63;3.42;;;;;;;0.94;49.87;94583.06;5064987;28;20075;-76
2023/12/04 10:35:37;;;;;;;7.10;2.90;;;;;;;1.09;50.37;94581.75;5064933;28;20275;-77
2023/12/04 10:38:06;;;;;;;9.48;3.97;;;;;;;1.22;48.43;94573.56;5065001;28;20135;-77
2023/12/04 10:40:34;;;;;;;11.98;3.97;;;;;;;1.23;48.28;94572.53;5064802;28;20349;-76
2023/12/04 10:43:09;;;;;;;10.82;4.25;;;;;;;1.26;48.68;94566.81;5065016;28;20036;-77
2023/12/04 10:45:35;;;;;;;7.68;3.67;;;;;;;1.31;47.89;94568.75;5063891;28;20025;-77
2023/12/04 10:48:04;;;;;;;7.72;3.50;;;;;;;1.38;48.37;94570.19;5063773;28;20028;-77
2023/12/04 10:50:33;;;;;;;11.27;4.45;;;;;;;1.39;48.18;94571.75;5064796;28;20028;-77
2023/12/04 10:53:01;;;;;;;6.15;3.30;;;;;;;1.45;47.86;94569.22;5063563;28;20029;-77
2023/12/04 10:55:27;;;;;;;6.95;3.70;;;;;;;1.48;47.63;94574.78;5064939;28;20043;-77
2023/12/04 10:57:54;;;;;;;8.98;4.38;;;;;;;1.52;47.58;94565.41;5064376;28;20271;-74
2023/12/04 11:00:21;;;;;;;9.32;4.25;;;;;;;1.51;47.45;94569.06;5064763;28;20118;-74
2023/12/04 11:02:49;;;;;;;8.95;3.72;;;;;;;1.65;47.85;94580.06;5064521;28;20222;-74
2023/12/04 11:05:21;;;;;;;11.00;4.60;;;;;;;1.77;48.13;94582.59;5064395;28;20037;-75
2023/12/04 11:07:59;;;;;;;9.68;4.05;;;;;;;1.86;48.37;94569.84;5064337;28;20025;-77
2023/12/04 11:10:27;;;;;;;7.72;3.92;;;;;;;1.97;47.12;94564.50;5063159;28;20226;-76
2023/12/04 11:13:17;;;;;;;7.57;3.67;;;;;;;2.06;48.14;94561.47;5063227;28;20092;-77
2023/12/04 11:15:47;;;;;;;8.75;3.58;;;;;;;2.24;47.17;94560.38;5064057;28;20032;-76
2023/12/04 11:18:15;;;;;;;8.07;4.32;;;;;;;2.25;46.96;94564.59;5064470;28;20215;-76
2023/12/04 11:20:58;;;;;;;16.30;4.47;;;;;;;2.29;46.68;94557.81;5063771;28;20077;-77
2023/12/04 11:23:24;;;;;;;9.57;3.70;;;;;;;2.36;46.40;94553.97;5062949;28;20025;-76
2023/12/04 11:25:50;;;;;;;9.98;3.75;;;;;;;2.47;46.34;94554.09;5062939;28;20138;-77
2023/12/04 11:28:16;;;;;;;6.85;3.75;;;;;;;2.68;46.68;94544.59;5062027;28;20033;-77